sensor_id;sensor_type;location;lat;lon;timestamp;P1;durP1;ratioP1;P2;durP2;ratioP2
66707;SDS011;53622;0.000;0.000;2023-04-07T00:00:06;1.45;;;0.63;;
66707;SDS011;53622;0.000;0.000;2023-04-07T00:02:39;1.42;;;0.60;;
66707;SDS011;53622;0.000;0.000;2023-04-07T00:05:10;0.70;;;0.60;;
66707;SDS011;53622;0.000;0.000;2023-04-07T00:07:41;1.02;;;0.70;;
66707;SDS011;53622;0.000;0.000;2023-04-07T00:10:22;1.70;;;0.50;;
66707;SDS011;53622;0.000;0.000;2023-04-07T00:12:51;0.60;;;0.50;;
66707;SDS011;53622;0.000;0.000;2023-04-07T00:15:21;2.30;;;0.70;;
66707;SDS011;53622;0.000;0.000;2023-04-07T00:17:50;0.63;;;0.57;;
66707;SDS011;53622;0.000;0.000;2023-04-07T00:20:19;1.40;;;0.60;;
66707;SDS011;53622;0.000;0.000;2023-04-07T00:22:50;0.50;;;0.40;;
66707;SDS011;53622;0.000;0.000;2023-04-07T00:25:19;0.70;;;0.50;;
66707;SDS011;53622;0.000;0.000;2023-04-07T00:27:49;0.77;;;0.70;;
66707;SDS011;53622;0.000;0.000;2023-04-07T00:30:18;0.73;;;0.50;;
66707;SDS011;53622;0.000;0.000;2023-04-07T00:32:48;0.45;;;0.45;;
66707;SDS011;53622;0.000;0.000;2023-04-07T00:35:17;0.80;;;0.60;;
66707;SDS011;53622;0.000;0.000;2023-04-07T00:37:47;0.90;;;0.63;;
66707;SDS011;53622;0.000;0.000;2023-04-07T00:40:18;1.20;;;0.60;;
66707;SDS011;53622;0.000;0.000;2023-04-07T00:42:47;6.30;;;0.70;;
66707;SDS011;53622;0.000;0.000;2023-04-07T00:45:17;1.50;;;0.77;;
66707;SDS011;53622;0.000;0.000;2023-04-07T00:47:46;1.90;;;0.80;;
66707;SDS011;53622;0.000;0.000;2023-04-07T00:50:16;2.35;;;0.70;;
66707;SDS011;53622;0.000;0.000;2023-04-07T00:52:46;3.47;;;0.60;;
66707;SDS011;53622;0.000;0.000;2023-04-07T00:55:15;0.63;;;0.63;;
66707;SDS011;53622;0.000;0.000;2023-04-07T00:57:46;0.75;;;0.65;;
66707;SDS011;53622;0.000;0.000;2023-04-07T01:00:16;1.50;;;0.60;;
66707;SDS011;53622;0.000;0.000;2023-04-07T01:02:47;0.70;;;0.70;;
66707;SDS011;53622;0.000;0.000;2023-04-07T01:05:25;0.90;;;0.80;;
66707;SDS011;53622;0.000;0.000;2023-04-07T01:08:01;0.73;;;0.50;;
66707;SDS011;53622;0.000;0.000;2023-04-07T01:10:40;0.60;;;0.60;;
66707;SDS011;53622;0.000;0.000;2023-04-07T01:13:19;1.02;;;0.80;;
66707;SDS011;53622;0.000;0.000;2023-04-07T01:15:57;1.15;;;0.73;;
66707;SDS011;53622;0.000;0.000;2023-04-07T01:18:34;0.80;;;0.70;;
66707;SDS011;53622;0.000;0.000;2023-04-07T01:21:06;0.75;;;0.75;;
66707;SDS011;53622;0.000;0.000;2023-04-07T01:23:48;1.30;;;0.80;;
66707;SDS011;53622;0.000;0.000;2023-04-07T01:26:31;1.60;;;0.60;;
66707;SDS011;53622;0.000;0.000;2023-04-07T01:29:18;1.88;;;0.60;;
66707;SDS011;53622;0.000;0.000;2023-04-07T01:32:03;1.02;;;0.80;;
66707;SDS011;53622;0.000;0.000;2023-04-07T01:34:35;0.98;;;0.60;;
66707;SDS011;53622;0.000;0.000;2023-04-07T01:37:05;1.35;;;0.65;;
66707;SDS011;53622;0.000;0.000;2023-04-07T01:39:36;0.77;;;0.75;;
66707;SDS011;53622;0.000;0.000;2023-04-07T01:42:07;0.90;;;0.70;;
66707;SDS011;53622;0.000;0.000;2023-04-07T01:44:39;0.70;;;0.70;;
66707;SDS011;53622;0.000;0.000;2023-04-07T01:47:09;1.55;;;0.80;;
66707;SDS011;53622;0.000;0.000;2023-04-07T01:49:39;2.22;;;0.80;;
66707;SDS011;53622;0.000;0.000;2023-04-07T01:52:10;0.68;;;0.60;;
66707;SDS011;53622;0.000;0.000;2023-04-07T01:54:40;0.80;;;0.77;;
66707;SDS011;53622;0.000;0.000;2023-04-07T01:57:10;1.23;;;0.77;;
66707;SDS011;53622;0.000;0.000;2023-04-07T01:59:42;0.93;;;0.80;;
66707;SDS011;53622;0.000;0.000;2023-04-07T02:02:11;1.02;;;0.60;;
66707;SDS011;53622;0.000;0.000;2023-04-07T02:04:43;1.00;;;0.90;;
66707;SDS011;53622;0.000;0.000;2023-04-07T02:07:21;2.15;;;0.73;;
66707;SDS011;53622;0.000;0.000;2023-04-07T02:09:54;1.42;;;0.90;;
66707;SDS011;53622;0.000;0.000;2023-04-07T02:12:26;1.38;;;0.80;;
66707;SDS011;53622;0.000;0.000;2023-04-07T02:15:10;1.00;;;0.70;;
66707;SDS011;53622;0.000;0.000;2023-04-07T02:17:42;1.88;;;0.60;;
66707;SDS011;53622;0.000;0.000;2023-04-07T02:20:15;0.50;;;0.50;;
66707;SDS011;53622;0.000;0.000;2023-04-07T02:22:45;0.77;;;0.77;;
66707;SDS011;53622;0.000;0.000;2023-04-07T02:25:24;1.00;;;0.70;;
66707;SDS011;53622;0.000;0.000;2023-04-07T02:27:54;1.35;;;0.80;;
66707;SDS011;53622;0.000;0.000;2023-04-07T02:30:26;1.05;;;0.82;;
66707;SDS011;53622;0.000;0.000;2023-04-07T02:32:55;1.17;;;0.80;;
66707;SDS011;53622;0.000;0.000;2023-04-07T02:35:25;1.55;;;0.70;;
66707;SDS011;53622;0.000;0.000;2023-04-07T02:37:54;1.05;;;0.70;;
66707;SDS011;53622;0.000;0.000;2023-04-07T02:40:23;0.88;;;0.52;;
66707;SDS011;53622;0.000;0.000;2023-04-07T02:42:53;1.70;;;0.70;;
66707;SDS011;53622;0.000;0.000;2023-04-07T02:45:22;1.10;;;0.50;;
66707;SDS011;53622;0.000;0.000;2023-04-07T02:47:53;0.70;;;0.57;;
66707;SDS011;53622;0.000;0.000;2023-04-07T02:50:22;0.80;;;0.77;;
66707;SDS011;53622;0.000;0.000;2023-04-07T02:52:52;1.05;;;0.75;;
66707;SDS011;53622;0.000;0.000;2023-04-07T02:55:21;1.33;;;0.77;;
66707;SDS011;53622;0.000;0.000;2023-04-07T02:57:50;1.13;;;0.50;;
66707;SDS011;53622;0.000;0.000;2023-04-07T03:00:32;0.60;;;0.60;;
66707;SDS011;53622;0.000;0.000;2023-04-07T03:03:10;0.40;;;0.40;;
66707;SDS011;53622;0.000;0.000;2023-04-07T03:05:45;0.70;;;0.55;;
66707;SDS011;53622;0.000;0.000;2023-04-07T03:08:14;0.90;;;0.55;;
66707;SDS011;53622;0.000;0.000;2023-04-07T03:10:44;0.88;;;0.65;;
66707;SDS011;53622;0.000;0.000;2023-04-07T03:13:14;0.73;;;0.60;;
66707;SDS011;53622;0.000;0.000;2023-04-07T03:15:45;1.00;;;0.70;;
66707;SDS011;53622;0.000;0.000;2023-04-07T03:18:17;0.75;;;0.65;;
66707;SDS011;53622;0.000;0.000;2023-04-07T03:20:47;0.90;;;0.70;;
66707;SDS011;53622;0.000;0.000;2023-04-07T03:23:17;0.98;;;0.50;;
66707;SDS011;53622;0.000;0.000;2023-04-07T03:25:46;0.77;;;0.75;;
66707;SDS011;53622;0.000;0.000;2023-04-07T03:28:16;0.73;;;0.60;;
66707;SDS011;53622;0.000;0.000;2023-04-07T03:30:45;0.63;;;0.63;;
66707;SDS011;53622;0.000;0.000;2023-04-07T03:33:14;0.60;;;0.60;;
66707;SDS011;53622;0.000;0.000;2023-04-07T03:35:45;1.42;;;0.80;;
66707;SDS011;53622;0.000;0.000;2023-04-07T03:38:14;1.10;;;0.73;;
66707;SDS011;53622;0.000;0.000;2023-04-07T03:40:44;1.48;;;0.80;;
66707;SDS011;53622;0.000;0.000;2023-04-07T03:43:13;0.90;;;0.80;;
66707;SDS011;53622;0.000;0.000;2023-04-07T03:45:44;0.80;;;0.70;;
66707;SDS011;53622;0.000;0.000;2023-04-07T03:48:17;0.50;;;0.50;;
66707;SDS011;53622;0.000;0.000;2023-04-07T03:50:57;0.75;;;0.75;;
66707;SDS011;53622;0.000;0.000;2023-04-07T03:53:26;0.60;;;0.60;;
66707;SDS011;53622;0.000;0.000;2023-04-07T03:55:57;0.70;;;0.70;;
66707;SDS011;53622;0.000;0.000;2023-04-07T03:58:43;1.00;;;0.90;;
66707;SDS011;53622;0.000;0.000;2023-04-07T04:01:19;1.10;;;0.77;;
66707;SDS011;53622;0.000;0.000;2023-04-07T04:03:51;1.17;;;0.68;;
66707;SDS011;53622;0.000;0.000;2023-04-07T04:06:26;1.10;;;0.80;;
66707;SDS011;53622;0.000;0.000;2023-04-07T04:09:03;0.80;;;0.80;;
66707;SDS011;53622;0.000;0.000;2023-04-07T04:11:36;0.60;;;0.60;;
66707;SDS011;53622;0.000;0.000;2023-04-07T04:14:05;1.15;;;0.63;;
66707;SDS011;53622;0.000;0.000;2023-04-07T04:16:36;1.05;;;0.80;;
66707;SDS011;53622;0.000;0.000;2023-04-07T04:19:17;0.73;;;0.70;;
66707;SDS011;53622;0.000;0.000;2023-04-07T04:21:46;0.80;;;0.80;;
66707;SDS011;53622;0.000;0.000;2023-04-07T04:24:16;0.90;;;0.80;;
66707;SDS011;53622;0.000;0.000;2023-04-07T04:26:45;0.75;;;0.68;;
66707;SDS011;53622;0.000;0.000;2023-04-07T04:29:15;0.60;;;0.60;;
66707;SDS011;53622;0.000;0.000;2023-04-07T04:31:45;0.80;;;0.80;;
66707;SDS011;53622;0.000;0.000;2023-04-07T04:34:17;0.60;;;0.60;;
66707;SDS011;53622;0.000;0.000;2023-04-07T04:36:48;0.70;;;0.70;;
66707;SDS011;53622;0.000;0.000;2023-04-07T04:39:19;0.88;;;0.80;;
66707;SDS011;53622;0.000;0.000;2023-04-07T04:41:48;0.90;;;0.70;;
66707;SDS011;53622;0.000;0.000;2023-04-07T04:44:20;1.05;;;0.80;;
66707;SDS011;53622;0.000;0.000;2023-04-07T04:46:49;0.90;;;0.65;;
66707;SDS011;53622;0.000;0.000;2023-04-07T04:49:20;0.73;;;0.73;;
66707;SDS011;53622;0.000;0.000;2023-04-07T04:51:51;0.70;;;0.70;;
66707;SDS011;53622;0.000;0.000;2023-04-07T04:54:20;0.70;;;0.70;;
66707;SDS011;53622;0.000;0.000;2023-04-07T04:56:49;1.17;;;0.70;;
66707;SDS011;53622;0.000;0.000;2023-04-07T04:59:19;0.75;;;0.73;;
66707;SDS011;53622;0.000;0.000;2023-04-07T05:01:57;1.38;;;1.00;;
66707;SDS011;53622;0.000;0.000;2023-04-07T05:04:28;1.10;;;1.00;;
66707;SDS011;53622;0.000;0.000;2023-04-07T05:07:12;1.10;;;0.80;;
66707;SDS011;53622;0.000;0.000;2023-04-07T05:09:41;1.58;;;0.60;;
66707;SDS011;53622;0.000;0.000;2023-04-07T05:12:11;2.45;;;0.70;;
66707;SDS011;53622;0.000;0.000;2023-04-07T05:14:45;1.05;;;0.70;;
66707;SDS011;53622;0.000;0.000;2023-04-07T05:17:15;0.70;;;0.70;;
66707;SDS011;53622;0.000;0.000;2023-04-07T05:19:46;0.73;;;0.70;;
66707;SDS011;53622;0.000;0.000;2023-04-07T05:22:25;1.50;;;0.80;;
66707;SDS011;53622;0.000;0.000;2023-04-07T05:24:55;2.17;;;0.90;;
66707;SDS011;53622;0.000;0.000;2023-04-07T05:27:24;5.57;;;0.80;;
66707;SDS011;53622;0.000;0.000;2023-04-07T05:29:58;4.47;;;1.10;;
66707;SDS011;53622;0.000;0.000;2023-04-07T05:32:31;5.18;;;0.95;;
66707;SDS011;53622;0.000;0.000;2023-04-07T05:35:09;4.28;;;1.20;;
66707;SDS011;53622;0.000;0.000;2023-04-07T05:37:44;3.88;;;0.85;;
66707;SDS011;53622;0.000;0.000;2023-04-07T05:40:14;5.25;;;0.88;;
66707;SDS011;53622;0.000;0.000;2023-04-07T05:42:43;3.90;;;0.90;;
66707;SDS011;53622;0.000;0.000;2023-04-07T05:45:16;2.88;;;0.80;;
66707;SDS011;53622;0.000;0.000;2023-04-07T05:47:48;1.15;;;0.80;;
66707;SDS011;53622;0.000;0.000;2023-04-07T05:50:26;2.72;;;1.00;;
66707;SDS011;53622;0.000;0.000;2023-04-07T05:52:59;2.15;;;0.82;;
66707;SDS011;53622;0.000;0.000;2023-04-07T05:55:28;1.45;;;0.80;;
66707;SDS011;53622;0.000;0.000;2023-04-07T05:57:59;2.00;;;0.90;;
66707;SDS011;53622;0.000;0.000;2023-04-07T06:00:32;2.60;;;0.88;;
66707;SDS011;53622;0.000;0.000;2023-04-07T06:03:07;2.58;;;0.80;;
66707;SDS011;53622;0.000;0.000;2023-04-07T06:05:50;2.00;;;0.82;;
66707;SDS011;53622;0.000;0.000;2023-04-07T06:08:21;0.93;;;0.80;;
66707;SDS011;53622;0.000;0.000;2023-04-07T06:10:50;6.72;;;1.30;;
66707;SDS011;53622;0.000;0.000;2023-04-07T06:13:21;2.78;;;0.82;;
66707;SDS011;53622;0.000;0.000;2023-04-07T06:15:53;4.38;;;0.80;;
66707;SDS011;53622;0.000;0.000;2023-04-07T06:18:23;2.72;;;0.98;;
66707;SDS011;53622;0.000;0.000;2023-04-07T06:20:54;6.22;;;1.55;;
66707;SDS011;53622;0.000;0.000;2023-04-07T06:23:25;3.08;;;0.93;;
66707;SDS011;53622;0.000;0.000;2023-04-07T06:25:54;8.07;;;1.10;;
66707;SDS011;53622;0.000;0.000;2023-04-07T06:28:23;4.60;;;0.82;;
66707;SDS011;53622;0.000;0.000;2023-04-07T06:30:54;4.30;;;0.90;;
66707;SDS011;53622;0.000;0.000;2023-04-07T06:33:26;2.78;;;0.98;;
66707;SDS011;53622;0.000;0.000;2023-04-07T06:35:57;2.38;;;0.93;;
66707;SDS011;53622;0.000;0.000;2023-04-07T06:38:26;2.42;;;1.20;;
66707;SDS011;53622;0.000;0.000;2023-04-07T06:40:56;5.90;;;1.10;;
66707;SDS011;53622;0.000;0.000;2023-04-07T06:43:25;1.13;;;0.70;;
66707;SDS011;53622;0.000;0.000;2023-04-07T06:46:01;2.30;;;0.90;;
66707;SDS011;53622;0.000;0.000;2023-04-07T06:48:31;7.18;;;1.00;;
66707;SDS011;53622;0.000;0.000;2023-04-07T06:51:01;5.35;;;1.05;;
66707;SDS011;53622;0.000;0.000;2023-04-07T06:53:31;2.17;;;0.80;;
66707;SDS011;53622;0.000;0.000;2023-04-07T06:56:04;2.95;;;0.88;;
66707;SDS011;53622;0.000;0.000;2023-04-07T06:58:34;2.35;;;0.80;;
66707;SDS011;53622;0.000;0.000;2023-04-07T07:01:05;5.10;;;1.25;;
66707;SDS011;53622;0.000;0.000;2023-04-07T07:03:34;5.47;;;1.00;;
66707;SDS011;53622;0.000;0.000;2023-04-07T07:06:05;2.08;;;0.75;;
66707;SDS011;53622;0.000;0.000;2023-04-07T07:08:35;4.20;;;1.00;;
66707;SDS011;53622;0.000;0.000;2023-04-07T07:11:04;3.70;;;0.82;;
66707;SDS011;53622;0.000;0.000;2023-04-07T07:13:34;5.60;;;1.33;;
66707;SDS011;53622;0.000;0.000;2023-04-07T07:16:03;3.47;;;0.73;;
66707;SDS011;53622;0.000;0.000;2023-04-07T07:18:34;1.70;;;1.00;;
66707;SDS011;53622;0.000;0.000;2023-04-07T07:21:05;3.42;;;0.88;;
66707;SDS011;53622;0.000;0.000;2023-04-07T07:23:35;1.98;;;0.73;;
66707;SDS011;53622;0.000;0.000;2023-04-07T07:26:04;2.17;;;0.88;;
66707;SDS011;53622;0.000;0.000;2023-04-07T07:28:34;1.75;;;1.10;;
66707;SDS011;53622;0.000;0.000;2023-04-07T07:31:06;2.03;;;1.00;;
66707;SDS011;53622;0.000;0.000;2023-04-07T07:33:39;1.90;;;0.85;;
66707;SDS011;53622;0.000;0.000;2023-04-07T07:36:12;2.33;;;0.70;;
66707;SDS011;53622;0.000;0.000;2023-04-07T07:38:41;1.55;;;1.00;;
66707;SDS011;53622;0.000;0.000;2023-04-07T07:41:10;2.83;;;0.90;;
66707;SDS011;53622;0.000;0.000;2023-04-07T07:43:40;1.23;;;0.98;;
66707;SDS011;53622;0.000;0.000;2023-04-07T07:46:09;2.00;;;1.10;;
66707;SDS011;53622;0.000;0.000;2023-04-07T07:48:38;0.80;;;0.80;;
66707;SDS011;53622;0.000;0.000;2023-04-07T07:51:08;2.47;;;0.90;;
66707;SDS011;53622;0.000;0.000;2023-04-07T07:53:39;1.73;;;0.95;;
66707;SDS011;53622;0.000;0.000;2023-04-07T07:56:09;0.68;;;0.65;;
66707;SDS011;53622;0.000;0.000;2023-04-07T07:58:39;1.38;;;1.00;;
66707;SDS011;53622;0.000;0.000;2023-04-07T08:01:09;1.15;;;0.75;;
66707;SDS011;53622;0.000;0.000;2023-04-07T08:03:39;0.82;;;0.80;;
66707;SDS011;53622;0.000;0.000;2023-04-07T08:06:08;1.08;;;0.80;;
66707;SDS011;53622;0.000;0.000;2023-04-07T08:08:39;1.48;;;1.00;;
66707;SDS011;53622;0.000;0.000;2023-04-07T08:11:09;4.82;;;0.85;;
66707;SDS011;53622;0.000;0.000;2023-04-07T08:13:38;1.60;;;1.23;;
66707;SDS011;53622;0.000;0.000;2023-04-07T08:16:12;1.30;;;0.85;;
66707;SDS011;53622;0.000;0.000;2023-04-07T08:18:41;1.58;;;0.88;;
66707;SDS011;53622;0.000;0.000;2023-04-07T08:21:11;1.73;;;1.15;;
66707;SDS011;53622;0.000;0.000;2023-04-07T08:23:42;1.00;;;0.80;;
66707;SDS011;53622;0.000;0.000;2023-04-07T08:26:13;1.05;;;0.80;;
66707;SDS011;53622;0.000;0.000;2023-04-07T08:28:42;0.77;;;0.77;;
66707;SDS011;53622;0.000;0.000;2023-04-07T08:31:12;1.23;;;0.98;;
66707;SDS011;53622;0.000;0.000;2023-04-07T08:33:42;1.58;;;0.80;;
66707;SDS011;53622;0.000;0.000;2023-04-07T08:36:12;1.17;;;0.90;;
66707;SDS011;53622;0.000;0.000;2023-04-07T08:38:43;1.92;;;0.90;;
66707;SDS011;53622;0.000;0.000;2023-04-07T08:41:12;1.50;;;0.80;;
66707;SDS011;53622;0.000;0.000;2023-04-07T08:43:47;0.90;;;0.80;;
66707;SDS011;53622;0.000;0.000;2023-04-07T08:46:19;1.48;;;0.90;;
66707;SDS011;53622;0.000;0.000;2023-04-07T08:48:50;2.00;;;0.90;;
66707;SDS011;53622;0.000;0.000;2023-04-07T08:51:22;0.80;;;0.80;;
66707;SDS011;53622;0.000;0.000;2023-04-07T08:53:59;1.50;;;1.00;;
66707;SDS011;53622;0.000;0.000;2023-04-07T08:56:33;1.55;;;0.93;;
66707;SDS011;53622;0.000;0.000;2023-04-07T08:59:08;1.17;;;1.08;;
66707;SDS011;53622;0.000;0.000;2023-04-07T09:01:38;2.13;;;0.98;;
66707;SDS011;53622;0.000;0.000;2023-04-07T09:04:09;1.08;;;0.80;;
66707;SDS011;53622;0.000;0.000;2023-04-07T09:06:38;0.77;;;0.77;;
66707;SDS011;53622;0.000;0.000;2023-04-07T09:09:09;1.50;;;0.90;;
66707;SDS011;53622;0.000;0.000;2023-04-07T09:11:41;1.42;;;0.98;;
66707;SDS011;53622;0.000;0.000;2023-04-07T09:14:10;1.65;;;0.80;;
66707;SDS011;53622;0.000;0.000;2023-04-07T09:16:39;0.80;;;0.73;;
66707;SDS011;53622;0.000;0.000;2023-04-07T09:19:09;1.00;;;0.90;;
66707;SDS011;53622;0.000;0.000;2023-04-07T09:21:48;1.40;;;0.90;;
66707;SDS011;53622;0.000;0.000;2023-04-07T09:24:21;6.03;;;1.17;;
66707;SDS011;53622;0.000;0.000;2023-04-07T09:29:36;4.75;;;1.00;;
66707;SDS011;53622;0.000;0.000;2023-04-07T09:32:06;2.10;;;0.75;;
66707;SDS011;53622;0.000;0.000;2023-04-07T09:34:36;2.60;;;0.88;;
66707;SDS011;53622;0.000;0.000;2023-04-07T09:37:07;2.00;;;0.90;;
66707;SDS011;53622;0.000;0.000;2023-04-07T09:39:51;5.28;;;1.10;;
66707;SDS011;53622;0.000;0.000;2023-04-07T09:42:21;3.38;;;1.00;;
66707;SDS011;53622;0.000;0.000;2023-04-07T09:44:50;3.03;;;0.77;;
66707;SDS011;53622;0.000;0.000;2023-04-07T09:47:24;2.72;;;0.77;;
66707;SDS011;53622;0.000;0.000;2023-04-07T09:49:55;3.72;;;1.00;;
66707;SDS011;53622;0.000;0.000;2023-04-07T09:55:21;1.23;;;0.80;;
66707;SDS011;53622;0.000;0.000;2023-04-07T09:57:51;1.20;;;0.82;;
66707;SDS011;53622;0.000;0.000;2023-04-07T10:00:22;1.27;;;0.90;;
66707;SDS011;53622;0.000;0.000;2023-04-07T10:02:52;0.90;;;0.80;;
66707;SDS011;53622;0.000;0.000;2023-04-07T10:05:22;2.80;;;1.13;;
66707;SDS011;53622;0.000;0.000;2023-04-07T10:07:52;2.25;;;0.73;;
66707;SDS011;53622;0.000;0.000;2023-04-07T10:10:23;4.13;;;1.30;;
66707;SDS011;53622;0.000;0.000;2023-04-07T10:12:55;3.25;;;1.30;;
66707;SDS011;53622;0.000;0.000;2023-04-07T10:15:25;2.17;;;0.95;;
66707;SDS011;53622;0.000;0.000;2023-04-07T10:17:54;9.60;;;1.85;;
66707;SDS011;53622;0.000;0.000;2023-04-07T10:20:24;18.00;;;2.58;;
66707;SDS011;53622;0.000;0.000;2023-04-07T10:22:54;12.05;;;3.13;;
66707;SDS011;53622;0.000;0.000;2023-04-07T10:25:35;10.50;;;3.10;;
66707;SDS011;53622;0.000;0.000;2023-04-07T10:28:07;14.63;;;3.95;;
66707;SDS011;53622;0.000;0.000;2023-04-07T10:30:39;15.35;;;3.22;;
66707;SDS011;53622;0.000;0.000;2023-04-07T10:33:09;12.02;;;3.15;;
66707;SDS011;53622;0.000;0.000;2023-04-07T10:38:33;4.63;;;1.83;;
66707;SDS011;53622;0.000;0.000;2023-04-07T10:47:14;7.90;;;2.00;;
66707;SDS011;53622;0.000;0.000;2023-04-07T10:52:47;11.88;;;1.92;;
66707;SDS011;53622;0.000;0.000;2023-04-07T10:55:36;4.63;;;1.27;;
66707;SDS011;53622;0.000;0.000;2023-04-07T10:58:17;5.95;;;1.70;;
66707;SDS011;53622;0.000;0.000;2023-04-07T11:03:53;9.05;;;1.80;;
66707;SDS011;53622;0.000;0.000;2023-04-07T11:06:25;9.98;;;1.70;;
66707;SDS011;53622;0.000;0.000;2023-04-07T11:08:54;7.38;;;1.38;;
66707;SDS011;53622;0.000;0.000;2023-04-07T11:11:37;1.88;;;1.20;;
66707;SDS011;53622;0.000;0.000;2023-04-07T11:14:09;3.40;;;1.23;;
66707;SDS011;53622;0.000;0.000;2023-04-07T11:16:40;2.78;;;1.27;;
66707;SDS011;53622;0.000;0.000;2023-04-07T11:19:52;10.10;;;1.70;;
66707;SDS011;53622;0.000;0.000;2023-04-07T11:22:58;4.03;;;1.27;;
66707;SDS011;53622;0.000;0.000;2023-04-07T11:26:28;4.13;;;1.58;;
66707;SDS011;53622;0.000;0.000;2023-04-07T11:29:18;4.07;;;1.42;;
66707;SDS011;53622;0.000;0.000;2023-04-07T11:32:39;3.40;;;0.95;;
66707;SDS011;53622;0.000;0.000;2023-04-07T11:35:09;2.13;;;1.08;;
66707;SDS011;53622;0.000;0.000;2023-04-07T11:37:38;2.97;;;1.10;;
66707;SDS011;53622;0.000;0.000;2023-04-07T11:40:29;2.75;;;1.10;;
66707;SDS011;53622;0.000;0.000;2023-04-07T11:43:00;2.15;;;0.95;;
66707;SDS011;53622;0.000;0.000;2023-04-07T11:45:31;2.25;;;1.08;;
66707;SDS011;53622;0.000;0.000;2023-04-07T11:48:00;2.95;;;1.10;;
66707;SDS011;53622;0.000;0.000;2023-04-07T11:50:39;1.45;;;1.10;;
66707;SDS011;53622;0.000;0.000;2023-04-07T11:53:10;4.47;;;1.02;;
66707;SDS011;53622;0.000;0.000;2023-04-07T11:55:39;3.17;;;1.20;;
66707;SDS011;53622;0.000;0.000;2023-04-07T12:05:55;1.70;;;1.00;;
66707;SDS011;53622;0.000;0.000;2023-04-07T12:08:38;2.72;;;1.00;;
66707;SDS011;53622;0.000;0.000;2023-04-07T12:11:08;1.63;;;0.93;;
66707;SDS011;53622;0.000;0.000;2023-04-07T12:13:38;1.95;;;0.93;;
66707;SDS011;53622;0.000;0.000;2023-04-07T12:16:07;1.55;;;0.95;;
66707;SDS011;53622;0.000;0.000;2023-04-07T12:18:36;1.40;;;0.80;;
66707;SDS011;53622;0.000;0.000;2023-04-07T12:21:07;5.43;;;1.27;;
66707;SDS011;53622;0.000;0.000;2023-04-07T12:23:37;2.78;;;1.00;;
66707;SDS011;53622;0.000;0.000;2023-04-07T12:26:07;4.88;;;1.05;;
66707;SDS011;53622;0.000;0.000;2023-04-07T12:28:38;3.60;;;0.90;;
66707;SDS011;53622;0.000;0.000;2023-04-07T12:31:07;3.28;;;0.90;;
66707;SDS011;53622;0.000;0.000;2023-04-07T12:33:37;2.55;;;0.90;;
66707;SDS011;53622;0.000;0.000;2023-04-07T12:36:08;1.70;;;0.95;;
66707;SDS011;53622;0.000;0.000;2023-04-07T12:38:37;2.22;;;0.95;;
66707;SDS011;53622;0.000;0.000;2023-04-07T12:41:06;2.58;;;0.95;;
66707;SDS011;53622;0.000;0.000;2023-04-07T12:43:36;2.30;;;1.10;;
66707;SDS011;53622;0.000;0.000;2023-04-07T12:46:05;1.77;;;0.90;;
66707;SDS011;53622;0.000;0.000;2023-04-07T12:48:34;1.48;;;0.80;;
66707;SDS011;53622;0.000;0.000;2023-04-07T12:51:04;3.28;;;0.82;;
66707;SDS011;53622;0.000;0.000;2023-04-07T12:53:35;2.92;;;1.10;;
66707;SDS011;53622;0.000;0.000;2023-04-07T12:56:04;2.63;;;0.90;;
66707;SDS011;53622;0.000;0.000;2023-04-07T12:58:34;1.45;;;0.75;;
66707;SDS011;53622;0.000;0.000;2023-04-07T13:01:03;3.92;;;0.95;;
66707;SDS011;53622;0.000;0.000;2023-04-07T13:03:33;1.40;;;0.75;;
66707;SDS011;53622;0.000;0.000;2023-04-07T13:06:02;1.27;;;0.80;;
66707;SDS011;53622;0.000;0.000;2023-04-07T13:08:32;2.78;;;1.17;;
66707;SDS011;53622;0.000;0.000;2023-04-07T13:11:03;1.25;;;0.80;;
66707;SDS011;53622;0.000;0.000;2023-04-07T13:13:32;3.50;;;1.08;;
66707;SDS011;53622;0.000;0.000;2023-04-07T13:16:02;2.33;;;0.90;;
66707;SDS011;53622;0.000;0.000;2023-04-07T13:18:31;0.80;;;0.70;;
66707;SDS011;53622;0.000;0.000;2023-04-07T13:21:01;1.42;;;0.70;;
66707;SDS011;53622;0.000;0.000;2023-04-07T13:23:52;1.48;;;0.68;;
66707;SDS011;53622;0.000;0.000;2023-04-07T13:26:30;3.17;;;0.80;;
66707;SDS011;53622;0.000;0.000;2023-04-07T13:29:00;1.65;;;0.75;;
66707;SDS011;53622;0.000;0.000;2023-04-07T13:31:29;3.33;;;0.77;;
66707;SDS011;53622;0.000;0.000;2023-04-07T13:33:59;1.42;;;0.80;;
66707;SDS011;53622;0.000;0.000;2023-04-07T13:36:28;1.05;;;0.70;;
66707;SDS011;53622;0.000;0.000;2023-04-07T13:38:59;2.63;;;0.70;;
66707;SDS011;53622;0.000;0.000;2023-04-07T13:41:28;2.42;;;0.60;;
66707;SDS011;53622;0.000;0.000;2023-04-07T13:43:57;1.40;;;0.70;;
66707;SDS011;53622;0.000;0.000;2023-04-07T13:46:38;0.88;;;0.50;;
66707;SDS011;53622;0.000;0.000;2023-04-07T13:49:07;1.92;;;0.70;;
66707;SDS011;53622;0.000;0.000;2023-04-07T13:59:10;1.35;;;0.55;;
66707;SDS011;53622;0.000;0.000;2023-04-07T14:02:03;1.40;;;0.70;;
66707;SDS011;53622;0.000;0.000;2023-04-07T14:04:33;2.95;;;0.63;;
66707;SDS011;53622;0.000;0.000;2023-04-07T14:07:02;1.05;;;0.50;;
66707;SDS011;53622;0.000;0.000;2023-04-07T14:09:32;0.68;;;0.60;;
66707;SDS011;53622;0.000;0.000;2023-04-07T14:12:01;1.25;;;0.50;;
66707;SDS011;53622;0.000;0.000;2023-04-07T14:17:03;0.95;;;0.52;;
66707;SDS011;53622;0.000;0.000;2023-04-07T14:19:33;1.95;;;0.60;;
66707;SDS011;53622;0.000;0.000;2023-04-07T14:22:02;1.50;;;0.63;;
66707;SDS011;53622;0.000;0.000;2023-04-07T14:24:31;2.25;;;0.65;;
66707;SDS011;53622;0.000;0.000;2023-04-07T14:27:01;0.65;;;0.45;;
66707;SDS011;53622;0.000;0.000;2023-04-07T14:29:31;2.83;;;0.52;;
66707;SDS011;53622;0.000;0.000;2023-04-07T14:32:02;8.27;;;0.73;;
66707;SDS011;53622;0.000;0.000;2023-04-07T14:34:31;10.98;;;1.42;;
66707;SDS011;53622;0.000;0.000;2023-04-07T14:37:01;8.95;;;1.15;;
66707;SDS011;53622;0.000;0.000;2023-04-07T14:39:32;7.72;;;0.90;;
66707;SDS011;53622;0.000;0.000;2023-04-07T14:42:03;4.78;;;0.95;;
66707;SDS011;53622;0.000;0.000;2023-04-07T14:44:35;3.97;;;0.77;;
66707;SDS011;53622;0.000;0.000;2023-04-07T14:47:04;5.13;;;1.08;;
66707;SDS011;53622;0.000;0.000;2023-04-07T14:49:33;3.42;;;0.80;;
66707;SDS011;53622;0.000;0.000;2023-04-07T14:52:03;1.60;;;0.60;;
66707;SDS011;53622;0.000;0.000;2023-04-07T14:54:33;4.43;;;0.70;;
66707;SDS011;53622;0.000;0.000;2023-04-07T14:57:02;1.30;;;0.52;;
66707;SDS011;53622;0.000;0.000;2023-04-07T14:59:31;3.53;;;0.95;;
66707;SDS011;53622;0.000;0.000;2023-04-07T15:02:02;6.10;;;1.00;;
66707;SDS011;53622;0.000;0.000;2023-04-07T15:04:31;5.00;;;1.33;;
66707;SDS011;53622;0.000;0.000;2023-04-07T15:07:01;1.98;;;0.75;;
66707;SDS011;53622;0.000;0.000;2023-04-07T15:09:31;4.10;;;0.93;;
66707;SDS011;53622;0.000;0.000;2023-04-07T15:12:00;4.68;;;1.00;;
66707;SDS011;53622;0.000;0.000;2023-04-07T15:14:31;6.82;;;1.05;;
66707;SDS011;53622;0.000;0.000;2023-04-07T15:17:01;7.85;;;1.10;;
66707;SDS011;53622;0.000;0.000;2023-04-07T15:19:31;3.40;;;1.00;;
66707;SDS011;53622;0.000;0.000;2023-04-07T15:22:05;3.05;;;0.80;;
66707;SDS011;53622;0.000;0.000;2023-04-07T15:24:34;5.10;;;0.70;;
66707;SDS011;53622;0.000;0.000;2023-04-07T15:27:15;6.63;;;1.25;;
66707;SDS011;53622;0.000;0.000;2023-04-07T15:29:44;2.72;;;0.63;;
66707;SDS011;53622;0.000;0.000;2023-04-07T15:32:34;4.65;;;0.90;;
66707;SDS011;53622;0.000;0.000;2023-04-07T15:35:08;4.90;;;0.90;;
66707;SDS011;53622;0.000;0.000;2023-04-07T15:37:37;6.22;;;0.95;;
66707;SDS011;53622;0.000;0.000;2023-04-07T15:40:07;4.00;;;0.65;;
66707;SDS011;53622;0.000;0.000;2023-04-07T15:42:37;2.50;;;0.82;;
66707;SDS011;53622;0.000;0.000;2023-04-07T15:45:08;3.85;;;0.85;;
66707;SDS011;53622;0.000;0.000;2023-04-07T15:47:42;3.97;;;0.95;;
66707;SDS011;53622;0.000;0.000;2023-04-07T15:50:12;4.72;;;1.17;;
66707;SDS011;53622;0.000;0.000;2023-04-07T15:52:41;3.78;;;0.80;;
66707;SDS011;53622;0.000;0.000;2023-04-07T15:55:10;5.72;;;0.88;;
66707;SDS011;53622;0.000;0.000;2023-04-07T15:57:39;2.60;;;0.82;;
66707;SDS011;53622;0.000;0.000;2023-04-07T16:00:09;2.92;;;0.90;;
66707;SDS011;53622;0.000;0.000;2023-04-07T16:02:39;3.33;;;0.80;;
66707;SDS011;53622;0.000;0.000;2023-04-07T16:05:10;6.20;;;1.10;;
66707;SDS011;53622;0.000;0.000;2023-04-07T16:07:39;2.40;;;0.90;;